sensor_id;sensor_type;location;lat;lon;timestamp;temperature;humidity
13976;DHT22;7062;49.792;9.946;2022-10-26T00:01:30;11.70;99.90
13976;DHT22;7062;49.792;9.946;2022-10-26T00:03:56;11.70;99.90
13976;DHT22;7062;49.792;9.946;2022-10-26T00:06:24;11.70;99.90
13976;DHT22;7062;49.792;9.946;2022-10-26T00:08:51;11.70;99.90
13976;DHT22;7062;49.792;9.946;2022-10-26T00:11:17;11.70;99.90
13976;DHT22;7062;49.792;9.946;2022-10-26T00:13:44;11.70;99.90
13976;DHT22;7062;49.792;9.946;2022-10-26T00:16:24;11.80;99.90
13976;DHT22;7062;49.792;9.946;2022-10-26T00:18:51;11.80;99.90
13976;DHT22;7062;49.792;9.946;2022-10-26T00:21:17;11.70;99.90
13976;DHT22;7062;49.792;9.946;2022-10-26T00:23:43;11.70;99.90
13976;DHT22;7062;49.792;9.946;2022-10-26T00:26:09;11.80;99.90
13976;DHT22;7062;49.792;9.946;2022-10-26T00:28:35;11.90;99.90
13976;DHT22;7062;49.792;9.946;2022-10-26T00:31:03;11.80;99.90
13976;DHT22;7062;49.792;9.946;2022-10-26T00:33:29;11.80;99.90
13976;DHT22;7062;49.792;9.946;2022-10-26T00:35:54;11.80;99.90
13976;DHT22;7062;49.792;9.946;2022-10-26T00:38:20;11.80;99.90
13976;DHT22;7062;49.792;9.946;2022-10-26T00:40:46;11.90;99.90
13976;DHT22;7062;49.792;9.946;2022-10-26T00:43:33;11.90;99.90
13976;DHT22;7062;49.792;9.946;2022-10-26T00:46:01;11.80;99.90
13976;DHT22;7062;49.792;9.946;2022-10-26T00:48:34;11.80;99.90
13976;DHT22;7062;49.792;9.946;2022-10-26T00:51:06;11.90;99.90
13976;DHT22;7062;49.792;9.946;2022-10-26T00:53:33;12.00;99.90
13976;DHT22;7062;49.792;9.946;2022-10-26T00:56:00;12.00;99.90
13976;DHT22;7062;49.792;9.946;2022-10-26T00:58:26;11.90;99.90
13976;DHT22;7062;49.792;9.946;2022-10-26T01:00:52;11.90;99.90
13976;DHT22;7062;49.792;9.946;2022-10-26T01:03:18;11.90;99.90
13976;DHT22;7062;49.792;9.946;2022-10-26T01:05:45;11.90;99.90
13976;DHT22;7062;49.792;9.946;2022-10-26T01:08:13;11.80;99.90
13976;DHT22;7062;49.792;9.946;2022-10-26T01:10:40;11.70;99.90
13976;DHT22;7062;49.792;9.946;2022-10-26T01:13:06;11.70;99.90
13976;DHT22;7062;49.792;9.946;2022-10-26T01:31:53;11.80;99.90
13976;DHT22;7062;49.792;9.946;2022-10-26T01:34:27;11.80;99.90
13976;DHT22;7062;49.792;9.946;2022-10-26T01:37:08;11.70;99.90
13976;DHT22;7062;49.792;9.946;2022-10-26T01:39:46;11.60;99.90
13976;DHT22;7062;49.792;9.946;2022-10-26T01:42:15;11.60;99.90
13976;DHT22;7062;49.792;9.946;2022-10-26T01:44:45;11.60;99.90
13976;DHT22;7062;49.792;9.946;2022-10-26T01:47:13;11.70;99.90
13976;DHT22;7062;49.792;9.946;2022-10-26T01:49:49;11.70;99.90
13976;DHT22;7062;49.792;9.946;2022-10-26T01:52:18;11.60;99.90
13976;DHT22;7062;49.792;9.946;2022-10-26T01:54:44;11.60;99.90
13976;DHT22;7062;49.792;9.946;2022-10-26T01:57:13;11.70;99.90
13976;DHT22;7062;49.792;9.946;2022-10-26T02:00:02;11.70;99.90
13976;DHT22;7062;49.792;9.946;2022-10-26T02:19:10;11.30;99.90
13976;DHT22;7062;49.792;9.946;2022-10-26T02:21:44;11.20;99.90
13976;DHT22;7062;49.792;9.946;2022-10-26T02:24:12;11.20;99.90
13976;DHT22;7062;49.792;9.946;2022-10-26T02:26:43;11.20;99.90
13976;DHT22;7062;49.792;9.946;2022-10-26T02:29:14;11.20;99.90
13976;DHT22;7062;49.792;9.946;2022-10-26T02:31:42;11.20;99.90
13976;DHT22;7062;49.792;9.946;2022-10-26T02:34:10;11.30;99.90
13976;DHT22;7062;49.792;9.946;2022-10-26T02:36:41;11.40;99.90
13976;DHT22;7062;49.792;9.946;2022-10-26T02:39:09;11.40;99.90
13976;DHT22;7062;49.792;9.946;2022-10-26T02:41:36;11.50;99.90
13976;DHT22;7062;49.792;9.946;2022-10-26T02:46:39;11.50;99.90
13976;DHT22;7062;49.792;9.946;2022-10-26T02:49:05;11.40;99.90
13976;DHT22;7062;49.792;9.946;2022-10-26T02:51:34;11.40;99.90
13976;DHT22;7062;49.792;9.946;2022-10-26T02:59:31;11.40;99.90
13976;DHT22;7062;49.792;9.946;2022-10-26T03:01:59;11.50;99.90
13976;DHT22;7062;49.792;9.946;2022-10-26T03:04:32;11.70;99.90
13976;DHT22;7062;49.792;9.946;2022-10-26T03:06:58;11.70;99.90
13976;DHT22;7062;49.792;9.946;2022-10-26T03:09:24;11.80;99.90
13976;DHT22;7062;49.792;9.946;2022-10-26T03:11:50;11.80;99.90
13976;DHT22;7062;49.792;9.946;2022-10-26T03:14:16;11.80;99.90
13976;DHT22;7062;49.792;9.946;2022-10-26T03:16:41;11.80;99.90
13976;DHT22;7062;49.792;9.946;2022-10-26T03:19:07;11.80;99.90
13976;DHT22;7062;49.792;9.946;2022-10-26T03:21:33;11.90;99.90
13976;DHT22;7062;49.792;9.946;2022-10-26T03:23:59;11.90;99.90
13976;DHT22;7062;49.792;9.946;2022-10-26T03:26:24;11.80;99.90
13976;DHT22;7062;49.792;9.946;2022-10-26T03:28:50;11.60;99.90
13976;DHT22;7062;49.792;9.946;2022-10-26T03:31:15;11.70;99.90
13976;DHT22;7062;49.792;9.946;2022-10-26T03:33:41;11.70;99.90
13976;DHT22;7062;49.792;9.946;2022-10-26T03:36:07;11.80;99.90
13976;DHT22;7062;49.792;9.946;2022-10-26T03:38:33;11.80;99.90
13976;DHT22;7062;49.792;9.946;2022-10-26T03:40:58;11.80;99.90
13976;DHT22;7062;49.792;9.946;2022-10-26T03:43:25;11.80;99.90
13976;DHT22;7062;49.792;9.946;2022-10-26T03:45:51;11.70;99.90
13976;DHT22;7062;49.792;9.946;2022-10-26T03:48:16;11.70;99.90
13976;DHT22;7062;49.792;9.946;2022-10-26T03:50:42;11.80;99.90
13976;DHT22;7062;49.792;9.946;2022-10-26T03:53:07;11.70;99.90
13976;DHT22;7062;49.792;9.946;2022-10-26T03:55:33;11.70;99.90
13976;DHT22;7062;49.792;9.946;2022-10-26T03:57:59;11.60;99.90
13976;DHT22;7062;49.792;9.946;2022-10-26T04:00:24;11.60;99.90
13976;DHT22;7062;49.792;9.946;2022-10-26T04:02:56;11.60;99.90
13976;DHT22;7062;49.792;9.946;2022-10-26T04:05:26;11.60;99.90
13976;DHT22;7062;49.792;9.946;2022-10-26T04:07:56;11.60;99.90
13976;DHT22;7062;49.792;9.946;2022-10-26T04:10:23;11.70;99.90
13976;DHT22;7062;49.792;9.946;2022-10-26T04:12:49;11.60;99.90
13976;DHT22;7062;49.792;9.946;2022-10-26T04:15:16;11.60;99.90
13976;DHT22;7062;49.792;9.946;2022-10-26T04:17:41;11.60;99.90
13976;DHT22;7062;49.792;9.946;2022-10-26T04:20:08;11.70;99.90
13976;DHT22;7062;49.792;9.946;2022-10-26T04:22:33;11.70;99.90
13976;DHT22;7062;49.792;9.946;2022-10-26T04:24:59;11.70;99.90
13976;DHT22;7062;49.792;9.946;2022-10-26T04:27:25;11.80;99.90
13976;DHT22;7062;49.792;9.946;2022-10-26T04:29:50;11.70;99.90
13976;DHT22;7062;49.792;9.946;2022-10-26T04:32:16;11.70;99.90
13976;DHT22;7062;49.792;9.946;2022-10-26T04:34:42;11.80;99.90
13976;DHT22;7062;49.792;9.946;2022-10-26T04:37:07;11.80;99.90
13976;DHT22;7062;49.792;9.946;2022-10-26T04:39:33;11.80;99.90
13976;DHT22;7062;49.792;9.946;2022-10-26T04:41:58;11.80;99.90
13976;DHT22;7062;49.792;9.946;2022-10-26T04:44:24;11.70;99.90
13976;DHT22;7062;49.792;9.946;2022-10-26T04:46:50;11.60;99.90
13976;DHT22;7062;49.792;9.946;2022-10-26T04:49:15;11.50;99.90
13976;DHT22;7062;49.792;9.946;2022-10-26T04:51:41;11.60;99.90
13976;DHT22;7062;49.792;9.946;2022-10-26T04:54:06;11.60;99.90
13976;DHT22;7062;49.792;9.946;2022-10-26T04:56:32;11.60;99.90
13976;DHT22;7062;49.792;9.946;2022-10-26T04:58:58;11.70;99.90
13976;DHT22;7062;49.792;9.946;2022-10-26T05:01:24;11.70;99.90
13976;DHT22;7062;49.792;9.946;2022-10-26T05:03:51;11.70;99.90
13976;DHT22;7062;49.792;9.946;2022-10-26T05:06:18;11.60;99.90
13976;DHT22;7062;49.792;9.946;2022-10-26T05:08:43;11.60;99.90
13976;DHT22;7062;49.792;9.946;2022-10-26T05:11:09;11.70;99.90
13976;DHT22;7062;49.792;9.946;2022-10-26T05:13:35;11.70;99.90
13976;DHT22;7062;49.792;9.946;2022-10-26T05:16:00;11.80;99.90
13976;DHT22;7062;49.792;9.946;2022-10-26T05:18:26;11.70;99.90
13976;DHT22;7062;49.792;9.946;2022-10-26T05:20:52;11.70;99.90
13976;DHT22;7062;49.792;9.946;2022-10-26T05:23:18;11.70;99.90
13976;DHT22;7062;49.792;9.946;2022-10-26T05:25:44;11.70;99.90
13976;DHT22;7062;49.792;9.946;2022-10-26T05:28:11;11.70;99.90
13976;DHT22;7062;49.792;9.946;2022-10-26T05:30:38;11.60;99.90
13976;DHT22;7062;49.792;9.946;2022-10-26T05:33:04;11.60;99.90
13976;DHT22;7062;49.792;9.946;2022-10-26T05:35:31;11.50;99.90
13976;DHT22;7062;49.792;9.946;2022-10-26T05:37:57;11.60;99.90
13976;DHT22;7062;49.792;9.946;2022-10-26T05:40:23;11.60;99.90
13976;DHT22;7062;49.792;9.946;2022-10-26T05:42:48;11.50;99.90
13976;DHT22;7062;49.792;9.946;2022-10-26T05:45:15;11.60;99.90
13976;DHT22;7062;49.792;9.946;2022-10-26T05:47:43;11.60;99.90
13976;DHT22;7062;49.792;9.946;2022-10-26T05:50:10;11.60;99.90
13976;DHT22;7062;49.792;9.946;2022-10-26T05:52:43;11.60;99.90
13976;DHT22;7062;49.792;9.946;2022-10-26T05:55:11;11.60;99.90
13976;DHT22;7062;49.792;9.946;2022-10-26T05:57:37;11.60;99.90
13976;DHT22;7062;49.792;9.946;2022-10-26T06:00:16;11.60;99.90
13976;DHT22;7062;49.792;9.946;2022-10-26T06:05:54;11.60;99.90
13976;DHT22;7062;49.792;9.946;2022-10-26T06:08:21;11.60;99.90
13976;DHT22;7062;49.792;9.946;2022-10-26T06:10:48;11.70;99.90
13976;DHT22;7062;49.792;9.946;2022-10-26T06:13:14;11.70;99.90
13976;DHT22;7062;49.792;9.946;2022-10-26T06:16:02;11.70;99.90
13976;DHT22;7062;49.792;9.946;2022-10-26T06:30:04;11.60;99.90
13976;DHT22;7062;49.792;9.946;2022-10-26T06:32:31;11.60;99.90
13976;DHT22;7062;49.792;9.946;2022-10-26T06:35:20;11.70;99.90
13976;DHT22;7062;49.792;9.946;2022-10-26T06:37:49;11.70;99.90
13976;DHT22;7062;49.792;9.946;2022-10-26T06:40:16;11.80;99.90
13976;DHT22;7062;49.792;9.946;2022-10-26T06:42:43;11.90;99.90
13976;DHT22;7062;49.792;9.946;2022-10-26T06:45:16;11.90;99.90
13976;DHT22;7062;49.792;9.946;2022-10-26T06:48:02;11.80;99.90
13976;DHT22;7062;49.792;9.946;2022-10-26T06:50:37;11.80;99.90
13976;DHT22;7062;49.792;9.946;2022-10-26T06:53:52;11.80;99.90
13976;DHT22;7062;49.792;9.946;2022-10-26T06:55:50;11.80;99.90
13976;DHT22;7062;49.792;9.946;2022-10-26T06:58:18;11.90;99.90
13976;DHT22;7062;49.792;9.946;2022-10-26T07:00:49;11.90;99.90
13976;DHT22;7062;49.792;9.946;2022-10-26T07:03:15;12.00;99.90
13976;DHT22;7062;49.792;9.946;2022-10-26T07:05:42;12.00;99.90
13976;DHT22;7062;49.792;9.946;2022-10-26T07:08:08;12.10;99.90
13976;DHT22;7062;49.792;9.946;2022-10-26T07:10:34;12.20;99.90
13976;DHT22;7062;49.792;9.946;2022-10-26T07:13:03;12.20;99.90
13976;DHT22;7062;49.792;9.946;2022-10-26T07:15:29;12.20;99.90
13976;DHT22;7062;49.792;9.946;2022-10-26T07:17:55;12.20;99.90
13976;DHT22;7062;49.792;9.946;2022-10-26T07:20:20;12.10;99.90
13976;DHT22;7062;49.792;9.946;2022-10-26T07:22:55;12.20;99.90
13976;DHT22;7062;49.792;9.946;2022-10-26T07:25:22;12.10;99.90
13976;DHT22;7062;49.792;9.946;2022-10-26T07:27:48;12.20;99.90
13976;DHT22;7062;49.792;9.946;2022-10-26T07:30:14;12.30;99.90
13976;DHT22;7062;49.792;9.946;2022-10-26T07:32:39;12.30;99.90
13976;DHT22;7062;49.792;9.946;2022-10-26T07:35:05;12.40;99.90
13976;DHT22;7062;49.792;9.946;2022-10-26T07:37:31;12.50;99.90
13976;DHT22;7062;49.792;9.946;2022-10-26T07:39:57;12.50;99.90
13976;DHT22;7062;49.792;9.946;2022-10-26T07:42:22;12.50;99.90
13976;DHT22;7062;49.792;9.946;2022-10-26T07:44:48;12.40;99.90
13976;DHT22;7062;49.792;9.946;2022-10-26T07:47:13;12.50;99.90
13976;DHT22;7062;49.792;9.946;2022-10-26T07:49:39;12.60;99.90
13976;DHT22;7062;49.792;9.946;2022-10-26T07:52:05;12.70;99.90
13976;DHT22;7062;49.792;9.946;2022-10-26T07:54:31;12.80;99.90
13976;DHT22;7062;49.792;9.946;2022-10-26T07:56:57;12.80;99.90
13976;DHT22;7062;49.792;9.946;2022-10-26T07:59:23;12.80;99.90
13976;DHT22;7062;49.792;9.946;2022-10-26T08:01:48;12.80;99.90
13976;DHT22;7062;49.792;9.946;2022-10-26T08:04:14;12.80;99.90
13976;DHT22;7062;49.792;9.946;2022-10-26T08:06:40;12.80;99.90
13976;DHT22;7062;49.792;9.946;2022-10-26T08:09:06;12.70;99.90
13976;DHT22;7062;49.792;9.946;2022-10-26T08:11:31;12.50;99.90
13976;DHT22;7062;49.792;9.946;2022-10-26T08:13:57;12.50;99.90
13976;DHT22;7062;49.792;9.946;2022-10-26T08:16:23;12.60;99.90
13976;DHT22;7062;49.792;9.946;2022-10-26T08:18:50;12.60;99.90
13976;DHT22;7062;49.792;9.946;2022-10-26T08:21:16;12.70;99.90
13976;DHT22;7062;49.792;9.946;2022-10-26T08:23:42;12.80;99.90
13976;DHT22;7062;49.792;9.946;2022-10-26T08:26:08;12.90;99.90
13976;DHT22;7062;49.792;9.946;2022-10-26T08:28:37;13.00;99.90
13976;DHT22;7062;49.792;9.946;2022-10-26T08:31:04;13.10;99.90
13976;DHT22;7062;49.792;9.946;2022-10-26T08:33:29;13.20;99.90
13976;DHT22;7062;49.792;9.946;2022-10-26T08:35:59;13.30;99.90
13976;DHT22;7062;49.792;9.946;2022-10-26T08:38:25;13.40;99.90
13976;DHT22;7062;49.792;9.946;2022-10-26T08:40:52;13.50;99.90
13976;DHT22;7062;49.792;9.946;2022-10-26T08:43:32;13.60;99.90
13976;DHT22;7062;49.792;9.946;2022-10-26T08:46:11;13.70;99.90
13976;DHT22;7062;49.792;9.946;2022-10-26T08:48:43;13.70;99.90
13976;DHT22;7062;49.792;9.946;2022-10-26T08:51:26;13.80;99.90
13976;DHT22;7062;49.792;9.946;2022-10-26T08:54:00;13.90;99.90
13976;DHT22;7062;49.792;9.946;2022-10-26T08:57:01;13.90;99.90
13976;DHT22;7062;49.792;9.946;2022-10-26T08:59:46;13.80;99.90
13976;DHT22;7062;49.792;9.946;2022-10-26T09:02:15;13.80;99.90
13976;DHT22;7062;49.792;9.946;2022-10-26T09:04:41;13.80;99.90
13976;DHT22;7062;49.792;9.946;2022-10-26T09:15:27;14.20;99.90
13976;DHT22;7062;49.792;9.946;2022-10-26T09:26:13;14.90;99.90
13976;DHT22;7062;49.792;9.946;2022-10-26T09:28:40;15.40;99.90
13976;DHT22;7062;49.792;9.946;2022-10-26T09:31:12;15.80;99.90
13976;DHT22;7062;49.792;9.946;2022-10-26T09:33:39;16.30;99.90
13976;DHT22;7062;49.792;9.946;2022-10-26T09:36:07;18.10;99.90
13976;DHT22;7062;49.792;9.946;2022-10-26T09:38:50;19.50;99.90
13976;DHT22;7062;49.792;9.946;2022-10-26T09:41:30;21.50;99.90
13976;DHT22;7062;49.792;9.946;2022-10-26T09:44:10;21.90;99.90
13976;DHT22;7062;49.792;9.946;2022-10-26T09:47:05;22.00;99.90
13976;DHT22;7062;49.792;9.946;2022-10-26T09:49:57;21.50;99.90
13976;DHT22;7062;49.792;9.946;2022-10-26T09:52:22;20.90;99.90
13976;DHT22;7062;49.792;9.946;2022-10-26T09:54:48;19.60;99.90
13976;DHT22;7062;49.792;9.946;2022-10-26T09:57:14;18.50;99.90
13976;DHT22;7062;49.792;9.946;2022-10-26T09:59:41;17.60;99.90
13976;DHT22;7062;49.792;9.946;2022-10-26T10:02:38;17.30;99.90
13976;DHT22;7062;49.792;9.946;2022-10-26T10:07:47;16.80;99.90
13976;DHT22;7062;49.792;9.946;2022-10-26T10:10:21;16.90;99.90
13976;DHT22;7062;49.792;9.946;2022-10-26T10:12:49;16.80;99.90
13976;DHT22;7062;49.792;9.946;2022-10-26T10:15:24;16.90;99.90
13976;DHT22;7062;49.792;9.946;2022-10-26T10:17:52;16.90;99.90
13976;DHT22;7062;49.792;9.946;2022-10-26T10:20:28;16.90;99.90
13976;DHT22;7062;49.792;9.946;2022-10-26T10:23:00;17.00;99.90
13976;DHT22;7062;49.792;9.946;2022-10-26T10:25:34;17.00;99.90
13976;DHT22;7062;49.792;9.946;2022-10-26T10:28:02;16.80;99.90
13976;DHT22;7062;49.792;9.946;2022-10-26T10:30:31;17.30;99.90
13976;DHT22;7062;49.792;9.946;2022-10-26T10:33:13;17.60;99.90
13976;DHT22;7062;49.792;9.946;2022-10-26T10:35:49;17.80;99.90
13976;DHT22;7062;49.792;9.946;2022-10-26T10:38:18;17.90;99.90
13976;DHT22;7062;49.792;9.946;2022-10-26T10:44:04;18.10;99.90
13976;DHT22;7062;49.792;9.946;2022-10-26T10:46:30;18.10;99.90
13976;DHT22;7062;49.792;9.946;2022-10-26T10:49:05;18.00;99.90
13976;DHT22;7062;49.792;9.946;2022-10-26T10:51:38;17.80;99.90
13976;DHT22;7062;49.792;9.946;2022-10-26T10:54:06;17.70;99.90
13976;DHT22;7062;49.792;9.946;2022-10-26T10:56:52;17.80;99.90
13976;DHT22;7062;49.792;9.946;2022-10-26T11:10:33;20.20;99.90
13976;DHT22;7062;49.792;9.946;2022-10-26T11:13:09;20.30;99.90
13976;DHT22;7062;49.792;9.946;2022-10-26T11:15:41;20.30;99.90
13976;DHT22;7062;49.792;9.946;2022-10-26T11:18:21;19.80;99.90
13976;DHT22;7062;49.792;9.946;2022-10-26T11:20:55;19.20;99.90
13976;DHT22;7062;49.792;9.946;2022-10-26T11:24:12;18.80;99.90
13976;DHT22;7062;49.792;9.946;2022-10-26T11:26:43;18.90;99.90
13976;DHT22;7062;49.792;9.946;2022-10-26T11:30:01;19.10;99.90
13976;DHT22;7062;49.792;9.946;2022-10-26T11:32:27;19.30;99.90
13976;DHT22;7062;49.792;9.946;2022-10-26T11:38:08;20.00;99.90
13976;DHT22;7062;49.792;9.946;2022-10-26T11:43:41;20.50;99.90
13976;DHT22;7062;49.792;9.946;2022-10-26T11:46:31;20.30;99.90
13976;DHT22;7062;49.792;9.946;2022-10-26T11:49:20;19.90;99.90
13976;DHT22;7062;49.792;9.946;2022-10-26T11:54:52;19.40;99.90
13976;DHT22;7062;49.792;9.946;2022-10-26T11:57:22;19.30;99.90
13976;DHT22;7062;49.792;9.946;2022-10-26T11:59:59;19.30;99.90
13976;DHT22;7062;49.792;9.946;2022-10-26T12:02:25;19.20;99.90
13976;DHT22;7062;49.792;9.946;2022-10-26T12:07:39;19.30;99.90
13976;DHT22;7062;49.792;9.946;2022-10-26T12:10:19;19.30;99.90
13976;DHT22;7062;49.792;9.946;2022-10-26T12:13:02;19.20;99.90
13976;DHT22;7062;49.792;9.946;2022-10-26T12:15:35;19.20;99.90
13976;DHT22;7062;49.792;9.946;2022-10-26T12:18:25;19.20;99.90
13976;DHT22;7062;49.792;9.946;2022-10-26T12:20:58;19.20;99.90
13976;DHT22;7062;49.792;9.946;2022-10-26T12:23:32;19.30;99.90
13976;DHT22;7062;49.792;9.946;2022-10-26T12:39:32;19.70;99.90
13976;DHT22;7062;49.792;9.946;2022-10-26T12:47:08;19.90;99.90
13976;DHT22;7062;49.792;9.946;2022-10-26T12:49:59;19.90;99.90
13976;DHT22;7062;49.792;9.946;2022-10-26T13:00:16;20.40;99.90
13976;DHT22;7062;49.792;9.946;2022-10-26T13:03:01;20.70;99.90
13976;DHT22;7062;49.792;9.946;2022-10-26T13:08:11;21.90;99.90
13976;DHT22;7062;49.792;9.946;2022-10-26T13:11:05;23.50;99.90
13976;DHT22;7062;49.792;9.946;2022-10-26T13:13:31;26.10;99.90
13976;DHT22;7062;49.792;9.946;2022-10-26T13:15:58;28.30;99.90
13976;DHT22;7062;49.792;9.946;2022-10-26T13:18:24;29.30;99.90
13976;DHT22;7062;49.792;9.946;2022-10-26T13:21:06;29.70;99.90
13976;DHT22;7062;49.792;9.946;2022-10-26T13:23:35;30.00;99.90
13976;DHT22;7062;49.792;9.946;2022-10-26T13:39:11;31.30;99.90
13976;DHT22;7062;49.792;9.946;2022-10-26T13:41:42;32.60;99.90
13976;DHT22;7062;49.792;9.946;2022-10-26T13:44:30;33.40;98.10
13976;DHT22;7062;49.792;9.946;2022-10-26T13:47:04;34.00;97.00
13976;DHT22;7062;49.792;9.946;2022-10-26T13:49:37;33.90;96.10
13976;DHT22;7062;49.792;9.946;2022-10-26T13:52:05;32.90;96.70
13976;DHT22;7062;49.792;9.946;2022-10-26T13:54:43;32.70;96.30
13976;DHT22;7062;49.792;9.946;2022-10-26T13:57:22;32.20;96.20
13976;DHT22;7062;49.792;9.946;2022-10-26T13:59:53;30.90;97.30
13976;DHT22;7062;49.792;9.946;2022-10-26T14:02:26;29.20;98.80
13976;DHT22;7062;49.792;9.946;2022-10-26T14:05:02;27.60;99.90
13976;DHT22;7062;49.792;9.946;2022-10-26T14:07:38;26.30;99.90
13976;DHT22;7062;49.792;9.946;2022-10-26T14:10:05;25.40;99.90
13976;DHT22;7062;49.792;9.946;2022-10-26T14:12:31;24.70;99.90
13976;DHT22;7062;49.792;9.946;2022-10-26T14:15:07;24.20;99.90
13976;DHT22;7062;49.792;9.946;2022-10-26T14:17:33;23.80;99.90
13976;DHT22;7062;49.792;9.946;2022-10-26T14:19:59;23.50;99.90
13976;DHT22;7062;49.792;9.946;2022-10-26T14:22:27;23.30;99.90
13976;DHT22;7062;49.792;9.946;2022-10-26T14:24:56;23.00;99.90
13976;DHT22;7062;49.792;9.946;2022-10-26T14:27:24;22.80;99.90
13976;DHT22;7062;49.792;9.946;2022-10-26T14:29:52;22.50;99.90
13976;DHT22;7062;49.792;9.946;2022-10-26T14:34:46;22.30;99.90
13976;DHT22;7062;49.792;9.946;2022-10-26T14:37:20;22.10;99.90
13976;DHT22;7062;49.792;9.946;2022-10-26T14:39:48;21.80;99.90
13976;DHT22;7062;49.792;9.946;2022-10-26T14:42:26;21.60;99.90
13976;DHT22;7062;49.792;9.946;2022-10-26T14:44:53;21.40;99.90
13976;DHT22;7062;49.792;9.946;2022-10-26T14:47:30;21.20;99.90
13976;DHT22;7062;49.792;9.946;2022-10-26T14:49:57;21.10;99.90
13976;DHT22;7062;49.792;9.946;2022-10-26T14:52:26;21.10;99.90
13976;DHT22;7062;49.792;9.946;2022-10-26T14:57:34;21.00;99.90
13976;DHT22;7062;49.792;9.946;2022-10-26T15:00:02;20.90;99.90
13976;DHT22;7062;49.792;9.946;2022-10-26T15:02:28;20.80;99.90
13976;DHT22;7062;49.792;9.946;2022-10-26T15:05:00;20.80;99.90
13976;DHT22;7062;49.792;9.946;2022-10-26T15:07:36;20.70;99.90
13976;DHT22;7062;49.792;9.946;2022-10-26T15:10:03;20.60;99.90
13976;DHT22;7062;49.792;9.946;2022-10-26T15:17:54;20.70;99.90
13976;DHT22;7062;49.792;9.946;2022-10-26T15:20:23;20.60;99.90
13976;DHT22;7062;49.792;9.946;2022-10-26T15:22:57;20.60;99.90
13976;DHT22;7062;49.792;9.946;2022-10-26T15:25:26;20.60;99.90
13976;DHT22;7062;49.792;9.946;2022-10-26T15:27:52;20.70;99.90
13976;DHT22;7062;49.792;9.946;2022-10-26T15:30:24;20.70;99.90
13976;DHT22;7062;49.792;9.946;2022-10-26T15:32:53;20.60;99.90
13976;DHT22;7062;49.792;9.946;2022-10-26T15:35:29;20.60;99.90
13976;DHT22;7062;49.792;9.946;2022-10-26T15:37:56;20.60;99.90
13976;DHT22;7062;49.792;9.946;2022-10-26T15:40:23;20.50;99.90
13976;DHT22;7062;49.792;9.946;2022-10-26T15:42:52;20.30;99.90
13976;DHT22;7062;49.792;9.946;2022-10-26T15:45:28;20.20;99.90
13976;DHT22;7062;49.792;9.946;2022-10-26T15:47:56;20.00;99.90
13976;DHT22;7062;49.792;9.946;2022-10-26T15:50:25;19.90;99.90
13976;DHT22;7062;49.792;9.946;2022-10-26T15:53:01;19.80;99.90
13976;DHT22;7062;49.792;9.946;2022-10-26T15:55:30;19.70;99.90
13976;DHT22;7062;49.792;9.946;2022-10-26T15:57:56;19.60;99.90
13976;DHT22;7062;49.792;9.946;2022-10-26T16:00:22;19.40;99.90
13976;DHT22;7062;49.792;9.946;2022-10-26T16:02:47;19.30;99.90
13976;DHT22;7062;49.792;9.946;2022-10-26T16:05:14;19.20;99.90
13976;DHT22;7062;49.792;9.946;2022-10-26T16:07:41;19.10;99.90
13976;DHT22;7062;49.792;9.946;2022-10-26T16:10:20;19.00;99.90
13976;DHT22;7062;49.792;9.946;2022-10-26T16:12:46;18.90;99.90
13976;DHT22;7062;49.792;9.946;2022-10-26T16:15:16;18.80;99.90
13976;DHT22;7062;49.792;9.946;2022-10-26T16:17:42;18.80;99.90
13976;DHT22;7062;49.792;9.946;2022-10-26T16:20:13;18.70;99.90
13976;DHT22;7062;49.792;9.946;2022-10-26T16:22:39;18.60;99.90
13976;DHT22;7062;49.792;9.946;2022-10-26T16:25:11;18.50;99.90
13976;DHT22;7062;49.792;9.946;2022-10-26T16:27:37;18.50;99.90
13976;DHT22;7062;49.792;9.946;2022-10-26T16:30:02;18.40;99.90
13976;DHT22;7062;49.792;9.946;2022-10-26T16:32:28;18.30;99.90
13976;DHT22;7062;49.792;9.946;2022-10-26T16:34:54;18.30;99.90
13976;DHT22;7062;49.792;9.946;2022-10-26T16:37:19;18.20;99.90
13976;DHT22;7062;49.792;9.946;2022-10-26T16:39:45;18.10;99.90
13976;DHT22;7062;49.792;9.946;2022-10-26T16:42:10;18.10;99.90
13976;DHT22;7062;49.792;9.946;2022-10-26T16:44:36;18.00;99.90
13976;DHT22;7062;49.792;9.946;2022-10-26T16:47:02;18.00;99.90
13976;DHT22;7062;49.792;9.946;2022-10-26T16:49:28;18.00;99.90
13976;DHT22;7062;49.792;9.946;2022-10-26T16:51:53;17.90;99.90
13976;DHT22;7062;49.792;9.946;2022-10-26T16:54:20;17.80;99.90
13976;DHT22;7062;49.792;9.946;2022-10-26T16:56:45;17.70;99.90
13976;DHT22;7062;49.792;9.946;2022-10-26T16:59:11;17.70;99.90
13976;DHT22;7062;49.792;9.946;2022-10-26T17:01:36;17.60;99.90
13976;DHT22;7062;49.792;9.946;2022-10-26T17:04:02;17.60;99.90
13976;DHT22;7062;49.792;9.946;2022-10-26T17:06:28;17.50;99.90
13976;DHT22;7062;49.792;9.946;2022-10-26T17:08:53;17.50;99.90
13976;DHT22;7062;49.792;9.946;2022-10-26T17:11:20;17.40;99.90
13976;DHT22;7062;49.792;9.946;2022-10-26T17:13:47;17.40;99.90
13976;DHT22;7062;49.792;9.946;2022-10-26T17:16:18;17.30;99.90
13976;DHT22;7062;49.792;9.946;2022-10-26T17:18:44;17.30;99.90
13976;DHT22;7062;49.792;9.946;2022-10-26T17:21:13;17.20;99.90
13976;DHT22;7062;49.792;9.946;2022-10-26T17:23:38;17.10;99.90
13976;DHT22;7062;49.792;9.946;2022-10-26T17:26:06;17.10;99.90
13976;DHT22;7062;49.792;9.946;2022-10-26T17:28:33;17.10;99.90
13976;DHT22;7062;49.792;9.946;2022-10-26T17:33:36;17.10;99.90
13976;DHT22;7062;49.792;9.946;2022-10-26T17:36:03;17.10;99.90
13976;DHT22;7062;49.792;9.946;2022-10-26T17:38:31;16.90;99.90
13976;DHT22;7062;49.792;9.946;2022-10-26T17:41:11;16.90;99.90
13976;DHT22;7062;49.792;9.946;2022-10-26T17:43:38;16.80;99.90
13976;DHT22;7062;49.792;9.946;2022-10-26T17:46:06;16.80;99.90
13976;DHT22;7062;49.792;9.946;2022-10-26T17:48:33;16.70;99.90
13976;DHT22;7062;49.792;9.946;2022-10-26T17:51:03;16.50;99.90
13976;DHT22;7062;49.792;9.946;2022-10-26T17:53:29;16.50;99.90
13976;DHT22;7062;49.792;9.946;2022-10-26T17:56:05;16.40;99.90
13976;DHT22;7062;49.792;9.946;2022-10-26T17:58:32;16.40;99.90
13976;DHT22;7062;49.792;9.946;2022-10-26T18:01:06;16.40;99.90
13976;DHT22;7062;49.792;9.946;2022-10-26T18:03:32;16.30;99.90
13976;DHT22;7062;49.792;9.946;2022-10-26T18:05:58;16.40;99.90
13976;DHT22;7062;49.792;9.946;2022-10-26T18:08:24;16.30;99.90
13976;DHT22;7062;49.792;9.946;2022-10-26T18:10:52;16.30;99.90
13976;DHT22;7062;49.792;9.946;2022-10-26T18:13:18;16.30;99.90
13976;DHT22;7062;49.792;9.946;2022-10-26T18:15:44;16.20;99.90
13976;DHT22;7062;49.792;9.946;2022-10-26T18:18:10;16.30;99.90
13976;DHT22;7062;49.792;9.946;2022-10-26T18:20:35;16.20;99.90
13976;DHT22;7062;49.792;9.946;2022-10-26T18:23:01;16.20;99.90
13976;DHT22;7062;49.792;9.946;2022-10-26T18:25:27;16.20;99.90
13976;DHT22;7062;49.792;9.946;2022-10-26T18:27:53;16.20;99.90
13976;DHT22;7062;49.792;9.946;2022-10-26T18:30:19;16.20;99.90
13976;DHT22;7062;49.792;9.946;2022-10-26T18:32:47;16.30;99.90
13976;DHT22;7062;49.792;9.946;2022-10-26T18:35:13;16.20;99.90
13976;DHT22;7062;49.792;9.946;2022-10-26T18:37:39;16.20;99.90